sensor_id;sensor_type;location;lat;lon;timestamp;pressure;altitude;pressure_sealevel;temperature;humidity
66668;BME280;57205;51.438;-2.006;2022-09-09T00:00:23;99580.78;;;14.94;96.35
66668;BME280;57205;51.438;-2.006;2022-09-09T00:03:06;99579.69;;;14.95;96.04
66668;BME280;57205;51.438;-2.006;2022-09-09T00:06:02;99582.38;;;14.95;96.45
66668;BME280;57205;51.438;-2.006;2022-09-09T00:11:30;99584.75;;;14.97;95.73
66668;BME280;57205;51.438;-2.006;2022-09-09T00:14:08;99580.47;;;14.96;96.18
66668;BME280;57205;51.438;-2.006;2022-09-09T00:16:39;99587.59;;;15.00;96.13
66668;BME280;57205;51.438;-2.006;2022-09-09T00:19:19;99577.94;;;14.99;96.06
66668;BME280;57205;51.438;-2.006;2022-09-09T00:24:44;99587.91;;;14.99;95.62
66668;BME280;57205;51.438;-2.006;2022-09-09T00:27:25;99584.44;;;14.98;95.87
66668;BME280;57205;51.438;-2.006;2022-09-09T00:30:14;99588.72;;;14.99;96.32
66668;BME280;57205;51.438;-2.006;2022-09-09T00:32:41;99587.59;;;15.00;95.94
66668;BME280;57205;51.438;-2.006;2022-09-09T00:37:44;99587.91;;;14.99;96.08
66668;BME280;57205;51.438;-2.006;2022-09-09T00:40:36;99586.31;;;14.98;95.84
66668;BME280;57205;51.438;-2.006;2022-09-09T00:43:32;99596.31;;;14.97;96.11
66668;BME280;57205;51.438;-2.006;2022-09-09T00:48:58;99600.28;;;14.91;96.10
66668;BME280;57205;51.438;-2.006;2022-09-09T00:54:27;99604.88;;;14.91;96.63
66668;BME280;57205;51.438;-2.006;2022-09-09T00:57:10;99607.56;;;14.91;96.57
66668;BME280;57205;51.438;-2.006;2022-09-09T00:59:48;99611.06;;;14.91;96.75
66668;BME280;57205;51.438;-2.006;2022-09-09T01:02:27;99610.72;;;14.93;96.73
66668;BME280;57205;51.438;-2.006;2022-09-09T01:04:54;99597.25;;;14.93;96.83
66668;BME280;57205;51.438;-2.006;2022-09-09T01:07:20;99604.25;;;14.94;96.71
66668;BME280;57205;51.438;-2.006;2022-09-09T01:12:40;99607.09;;;14.97;97.15
66668;BME280;57205;51.438;-2.006;2022-09-09T01:15:12;99602.19;;;14.99;97.11
66668;BME280;57205;51.438;-2.006;2022-09-09T01:20:20;99609.31;;;15.04;97.19
66668;BME280;57205;51.438;-2.006;2022-09-09T01:26:11;99613.13;;;15.03;96.74
66668;BME280;57205;51.438;-2.006;2022-09-09T01:28:45;99619.28;;;15.03;97.08
66668;BME280;57205;51.438;-2.006;2022-09-09T01:31:15;99617.72;;;15.02;97.33
66668;BME280;57205;51.438;-2.006;2022-09-09T01:33:42;99622.28;;;15.02;97.29
66668;BME280;57205;51.438;-2.006;2022-09-09T01:38:37;99631.50;;;15.01;97.74
66668;BME280;57205;51.438;-2.006;2022-09-09T01:41:03;99634.53;;;14.99;98.05
66668;BME280;57205;51.438;-2.006;2022-09-09T01:43:29;99633.06;;;15.02;97.90
66668;BME280;57205;51.438;-2.006;2022-09-09T01:45:56;99625.78;;;15.02;98.10
66668;BME280;57205;51.438;-2.006;2022-09-09T01:48:24;99634.69;;;15.03;98.05
66668;BME280;57205;51.438;-2.006;2022-09-09T01:50:50;99633.88;;;15.02;98.22
66668;BME280;57205;51.438;-2.006;2022-09-09T01:53:17;99631.50;;;15.01;98.09
66668;BME280;57205;51.438;-2.006;2022-09-09T01:55:59;99643.22;;;15.05;98.16
66668;BME280;57205;51.438;-2.006;2022-09-09T01:58:38;99630.38;;;15.02;97.81
66668;BME280;57205;51.438;-2.006;2022-09-09T02:01:15;99636.25;;;15.04;98.20
66668;BME280;57205;51.438;-2.006;2022-09-09T02:03:47;99633.56;;;15.04;98.16
66668;BME280;57205;51.438;-2.006;2022-09-09T02:08:59;99636.41;;;15.07;97.77
66668;BME280;57205;51.438;-2.006;2022-09-09T02:11:27;99645.59;;;15.06;97.87
66668;BME280;57205;51.438;-2.006;2022-09-09T02:14:08;99652.88;;;15.06;97.49
66668;BME280;57205;51.438;-2.006;2022-09-09T02:16:41;99647.97;;;15.08;97.79
66668;BME280;57205;51.438;-2.006;2022-09-09T02:19:11;99649.88;;;15.07;97.51
66668;BME280;57205;51.438;-2.006;2022-09-09T02:21:41;99650.34;;;15.09;97.40
66668;BME280;57205;51.438;-2.006;2022-09-09T02:24:08;99653.69;;;15.06;97.50
66668;BME280;57205;51.438;-2.006;2022-09-09T02:26:39;99649.09;;;15.07;97.28
66668;BME280;57205;51.438;-2.006;2022-09-09T02:29:11;99647.03;;;15.04;97.32
66668;BME280;57205;51.438;-2.006;2022-09-09T02:31:39;99658.13;;;15.02;97.19
66668;BME280;57205;51.438;-2.006;2022-09-09T02:34:08;99650.97;;;14.98;97.34
66668;BME280;57205;51.438;-2.006;2022-09-09T02:36:37;99662.88;;;14.97;97.11
66668;BME280;57205;51.438;-2.006;2022-09-09T02:39:07;99655.72;;;14.92;96.49
66668;BME280;57205;51.438;-2.006;2022-09-09T02:41:37;99657.78;;;14.87;96.66
66668;BME280;57205;51.438;-2.006;2022-09-09T02:44:15;99663.81;;;14.84;96.76
66668;BME280;57205;51.438;-2.006;2022-09-09T02:47:07;99669.19;;;14.84;96.53
66668;BME280;57205;51.438;-2.006;2022-09-09T02:52:51;99673.47;;;14.76;96.80
66668;BME280;57205;51.438;-2.006;2022-09-09T02:55:55;99676.00;;;14.73;97.08
66668;BME280;57205;51.438;-2.006;2022-09-09T02:58:22;99675.19;;;14.72;96.87
66668;BME280;57205;51.438;-2.006;2022-09-09T03:00:49;99678.69;;;14.73;96.78
66668;BME280;57205;51.438;-2.006;2022-09-09T03:03:16;99677.88;;;14.72;96.27
66668;BME280;57205;51.438;-2.006;2022-09-09T03:05:43;99683.91;;;14.69;95.38
66668;BME280;57205;51.438;-2.006;2022-09-09T03:08:08;99681.53;;;14.68;95.54
66668;BME280;57205;51.438;-2.006;2022-09-09T03:10:34;99681.06;;;14.65;95.84
66668;BME280;57205;51.438;-2.006;2022-09-09T03:13:00;99688.66;;;14.63;95.63
66668;BME280;57205;51.438;-2.006;2022-09-09T03:15:26;99684.34;;;14.62;95.53
66668;BME280;57205;51.438;-2.006;2022-09-09T03:17:55;99695.59;;;14.64;95.63
66668;BME280;57205;51.438;-2.006;2022-09-09T03:20:23;99692.25;;;14.59;95.40
66668;BME280;57205;51.438;-2.006;2022-09-09T03:22:48;99696.06;;;14.58;95.40
66668;BME280;57205;51.438;-2.006;2022-09-09T03:25:13;99689.09;;;14.57;95.76
66668;BME280;57205;51.438;-2.006;2022-09-09T03:27:39;99689.56;;;14.59;95.62
66668;BME280;57205;51.438;-2.006;2022-09-09T03:30:05;99696.84;;;14.58;95.21
66668;BME280;57205;51.438;-2.006;2022-09-09T03:32:31;99691.19;;;14.60;95.58
66668;BME280;57205;51.438;-2.006;2022-09-09T03:34:56;99697.03;;;14.62;94.97
66668;BME280;57205;51.438;-2.006;2022-09-09T03:37:22;99694.63;;;14.60;95.08
66668;BME280;57205;51.438;-2.006;2022-09-09T03:39:47;99698.94;;;14.61;95.15
66668;BME280;57205;51.438;-2.006;2022-09-09T03:42:13;99702.44;;;14.62;95.04
66668;BME280;57205;51.438;-2.006;2022-09-09T03:44:40;99710.66;;;14.65;95.24
66668;BME280;57205;51.438;-2.006;2022-09-09T03:47:07;99707.19;;;14.65;95.03
66668;BME280;57205;51.438;-2.006;2022-09-09T03:49:33;99714.94;;;14.66;94.89
66668;BME280;57205;51.438;-2.006;2022-09-09T03:51:58;99713.03;;;14.67;94.95
66668;BME280;57205;51.438;-2.006;2022-09-09T03:54:27;99714.63;;;14.68;94.89
66668;BME280;57205;51.438;-2.006;2022-09-09T03:56:53;99724.28;;;14.69;94.61
66668;BME280;57205;51.438;-2.006;2022-09-09T03:59:18;99721.78;;;14.73;94.40
66668;BME280;57205;51.438;-2.006;2022-09-09T04:01:45;99717.97;;;14.74;94.01
66668;BME280;57205;51.438;-2.006;2022-09-09T04:04:12;99715.59;;;14.72;94.17
66668;BME280;57205;51.438;-2.006;2022-09-09T04:06:37;99717.19;;;14.73;94.12
66668;BME280;57205;51.438;-2.006;2022-09-09T04:09:03;99710.34;;;14.76;93.90
66668;BME280;57205;51.438;-2.006;2022-09-09T04:11:29;99714.66;;;14.77;93.84
66668;BME280;57205;51.438;-2.006;2022-09-09T04:13:54;99721.13;;;14.76;93.57
66668;BME280;57205;51.438;-2.006;2022-09-09T04:16:20;99729.84;;;14.73;93.63
66668;BME280;57205;51.438;-2.006;2022-09-09T04:18:45;99724.47;;;14.73;93.62
66668;BME280;57205;51.438;-2.006;2022-09-09T04:21:11;99727.00;;;14.78;93.55
66668;BME280;57205;51.438;-2.006;2022-09-09T04:23:39;99723.50;;;14.77;93.50
66668;BME280;57205;51.438;-2.006;2022-09-09T04:26:05;99724.63;;;14.76;93.21
66668;BME280;57205;51.438;-2.006;2022-09-09T04:28:34;99731.91;;;14.76;93.10
66668;BME280;57205;51.438;-2.006;2022-09-09T04:31:05;99730.81;;;14.77;93.33
66668;BME280;57205;51.438;-2.006;2022-09-09T04:33:30;99733.50;;;14.77;92.76
66668;BME280;57205;51.438;-2.006;2022-09-09T04:35:57;99727.00;;;14.78;92.68
66668;BME280;57205;51.438;-2.006;2022-09-09T04:38:22;99737.47;;;14.79;92.64
66668;BME280;57205;51.438;-2.006;2022-09-09T04:40:49;99741.28;;;14.78;92.83
66668;BME280;57205;51.438;-2.006;2022-09-09T04:43:15;99740.47;;;14.78;92.92
66668;BME280;57205;51.438;-2.006;2022-09-09T04:45:41;99747.63;;;14.82;92.22
66668;BME280;57205;51.438;-2.006;2022-09-09T04:48:07;99743.50;;;14.85;91.63
66668;BME280;57205;51.438;-2.006;2022-09-09T04:50:33;99745.72;;;14.83;91.84
66668;BME280;57205;51.438;-2.006;2022-09-09T04:53:06;99746.34;;;14.80;92.09
66668;BME280;57205;51.438;-2.006;2022-09-09T04:55:32;99755.22;;;14.80;91.99
66668;BME280;57205;51.438;-2.006;2022-09-09T04:58:03;99748.53;;;14.78;92.14
66668;BME280;57205;51.438;-2.006;2022-09-09T05:00:29;99757.09;;;14.80;92.50
66668;BME280;57205;51.438;-2.006;2022-09-09T05:02:54;99757.91;;;14.80;92.73
66668;BME280;57205;51.438;-2.006;2022-09-09T05:05:19;99757.44;;;14.78;92.64
66668;BME280;57205;51.438;-2.006;2022-09-09T05:07:45;99757.09;;;14.80;92.95
66668;BME280;57205;51.438;-2.006;2022-09-09T05:10:12;99762.50;;;14.80;92.85
66668;BME280;57205;51.438;-2.006;2022-09-09T05:12:39;99765.66;;;14.82;93.02
66668;BME280;57205;51.438;-2.006;2022-09-09T05:15:05;99760.59;;;14.80;93.20
66668;BME280;57205;51.438;-2.006;2022-09-09T05:17:30;99761.41;;;14.81;93.34
66668;BME280;57205;51.438;-2.006;2022-09-09T05:19:56;99768.06;;;14.83;93.07
66668;BME280;57205;51.438;-2.006;2022-09-09T05:22:22;99772.66;;;14.83;93.23
66668;BME280;57205;51.438;-2.006;2022-09-09T05:24:49;99780.75;;;14.83;93.23
66668;BME280;57205;51.438;-2.006;2022-09-09T05:27:19;99774.72;;;14.86;93.26
66668;BME280;57205;51.438;-2.006;2022-09-09T05:29:45;99782.16;;;14.89;92.94
66668;BME280;57205;51.438;-2.006;2022-09-09T05:32:12;99786.78;;;14.88;93.09
66668;BME280;57205;51.438;-2.006;2022-09-09T05:34:40;99784.38;;;14.87;93.27
66668;BME280;57205;51.438;-2.006;2022-09-09T05:37:05;99789.75;;;14.87;93.28
66668;BME280;57205;51.438;-2.006;2022-09-09T05:39:33;99784.69;;;14.85;93.81
66668;BME280;57205;51.438;-2.006;2022-09-09T05:41:59;99787.06;;;14.87;93.53
66668;BME280;57205;51.438;-2.006;2022-09-09T05:44:24;99787.88;;;14.87;93.17
66668;BME280;57205;51.438;-2.006;2022-09-09T05:46:52;99791.38;;;14.88;93.22
66668;BME280;57205;51.438;-2.006;2022-09-09T05:49:19;99788.50;;;14.84;93.31
66668;BME280;57205;51.438;-2.006;2022-09-09T05:51:44;99793.91;;;14.84;93.00
66668;BME280;57205;51.438;-2.006;2022-09-09T05:54:10;99796.09;;;14.82;93.14
66668;BME280;57205;51.438;-2.006;2022-09-09T05:56:36;99800.53;;;14.78;93.26
66668;BME280;57205;51.438;-2.006;2022-09-09T05:59:01;99804.63;;;14.76;93.42
66668;BME280;57205;51.438;-2.006;2022-09-09T06:01:34;99804.63;;;14.76;93.31
66668;BME280;57205;51.438;-2.006;2022-09-09T06:04:00;99803.34;;;14.73;93.66
66668;BME280;57205;51.438;-2.006;2022-09-09T06:06:30;99812.34;;;14.68;93.59
66668;BME280;57205;51.438;-2.006;2022-09-09T06:08:57;99819.63;;;14.68;93.60
66668;BME280;57205;51.438;-2.006;2022-09-09T06:11:28;99820.13;;;14.70;93.72
66668;BME280;57205;51.438;-2.006;2022-09-09T06:13:56;99828.69;;;14.72;93.49
66668;BME280;57205;51.438;-2.006;2022-09-09T06:16:32;99823.97;;;14.78;92.95
66668;BME280;57205;51.438;-2.006;2022-09-09T06:18:58;99830.16;;;14.78;93.12
66668;BME280;57205;51.438;-2.006;2022-09-09T06:21:33;99841.56;;;14.84;92.81
66668;BME280;57205;51.438;-2.006;2022-09-09T06:23:59;99838.25;;;14.87;92.37
66668;BME280;57205;51.438;-2.006;2022-09-09T06:26:28;99844.13;;;14.89;92.48
66668;BME280;57205;51.438;-2.006;2022-09-09T06:28:56;99845.91;;;14.93;92.02
66668;BME280;57205;51.438;-2.006;2022-09-09T06:31:25;99843.84;;;14.99;91.47
66668;BME280;57205;51.438;-2.006;2022-09-09T06:33:53;99846.41;;;15.04;90.45
66668;BME280;57205;51.438;-2.006;2022-09-09T06:36:27;99847.38;;;15.08;90.15
66668;BME280;57205;51.438;-2.006;2022-09-09T06:38:55;99850.06;;;15.08;90.22
66668;BME280;57205;51.438;-2.006;2022-09-09T06:41:22;99851.84;;;15.12;89.61
66668;BME280;57205;51.438;-2.006;2022-09-09T06:43:49;99851.69;;;15.17;89.08
66668;BME280;57205;51.438;-2.006;2022-09-09T06:46:19;99851.22;;;15.24;88.89
66668;BME280;57205;51.438;-2.006;2022-09-09T06:48:47;99853.78;;;15.29;88.41
66668;BME280;57205;51.438;-2.006;2022-09-09T06:51:21;99849.53;;;15.36;87.55
66668;BME280;57205;51.438;-2.006;2022-09-09T06:53:58;99853.47;;;15.39;86.93
66668;BME280;57205;51.438;-2.006;2022-09-09T06:56:57;99846.38;;;15.51;86.73
66668;BME280;57205;51.438;-2.006;2022-09-09T06:59:17;99855.13;;;15.57;86.71
66668;BME280;57205;51.438;-2.006;2022-09-09T07:01:43;99847.84;;;15.75;86.17
66668;BME280;57205;51.438;-2.006;2022-09-09T07:04:17;99859.25;;;15.89;84.95
66668;BME280;57205;51.438;-2.006;2022-09-09T07:06:44;99857.69;;;16.13;84.18
66668;BME280;57205;51.438;-2.006;2022-09-09T07:09:13;99861.47;;;16.38;82.64
66668;BME280;57205;51.438;-2.006;2022-09-09T07:11:48;99865.41;;;16.66;81.87
66668;BME280;57205;51.438;-2.006;2022-09-09T07:14:14;99869.31;;;16.86;80.41
66668;BME280;57205;51.438;-2.006;2022-09-09T07:16:42;99869.91;;;16.91;78.58
66668;BME280;57205;51.438;-2.006;2022-09-09T07:19:08;99867.34;;;16.95;78.93
66668;BME280;57205;51.438;-2.006;2022-09-09T07:21:34;99866.44;;;16.91;79.06
66668;BME280;57205;51.438;-2.006;2022-09-09T07:24:00;99875.00;;;16.93;79.05
66668;BME280;57205;51.438;-2.006;2022-09-09T07:26:28;99877.88;;;16.88;78.99
66668;BME280;57205;51.438;-2.006;2022-09-09T07:28:54;99870.91;;;16.87;78.88
66668;BME280;57205;51.438;-2.006;2022-09-09T07:31:32;99877.56;;;16.89;78.99
66668;BME280;57205;51.438;-2.006;2022-09-09T07:33:59;99868.81;;;16.92;77.44
66668;BME280;57205;51.438;-2.006;2022-09-09T07:36:29;99874.22;;;16.92;78.02
66668;BME280;57205;51.438;-2.006;2022-09-09T07:38:57;99875.00;;;16.93;77.83
66668;BME280;57205;51.438;-2.006;2022-09-09T07:41:25;99872.91;;;16.98;77.61
66668;BME280;57205;51.438;-2.006;2022-09-09T07:43:52;99881.31;;;17.05;77.42
66668;BME280;57205;51.438;-2.006;2022-09-09T07:46:20;99880.81;;;17.12;76.95
66668;BME280;57205;51.438;-2.006;2022-09-09T07:48:48;99885.47;;;17.32;75.80
66668;BME280;57205;51.438;-2.006;2022-09-09T07:51:19;99892.56;;;17.45;75.05
66668;BME280;57205;51.438;-2.006;2022-09-09T07:53:46;99887.63;;;17.47;75.15
66668;BME280;57205;51.438;-2.006;2022-09-09T07:56:15;99897.78;;;17.59;74.65
66668;BME280;57205;51.438;-2.006;2022-09-09T07:58:47;99901.91;;;17.85;73.98
66668;BME280;57205;51.438;-2.006;2022-09-09T08:01:17;99900.78;;;18.48;72.88
66668;BME280;57205;51.438;-2.006;2022-09-09T08:03:44;99903.19;;;19.55;66.71
66668;BME280;57205;51.438;-2.006;2022-09-09T08:06:11;99906.34;;;20.32;65.58
66668;BME280;57205;51.438;-2.006;2022-09-09T08:08:38;99901.53;;;21.63;60.34
66668;BME280;57205;51.438;-2.006;2022-09-09T08:11:12;99905.34;;;22.12;56.46
66668;BME280;57205;51.438;-2.006;2022-09-09T08:13:42;99899.53;;;22.33;56.36
66668;BME280;57205;51.438;-2.006;2022-09-09T08:16:13;99904.69;;;22.18;56.04
66668;BME280;57205;51.438;-2.006;2022-09-09T08:18:39;99908.63;;;21.83;57.53
66668;BME280;57205;51.438;-2.006;2022-09-09T08:21:11;99909.88;;;21.54;57.69
66668;BME280;57205;51.438;-2.006;2022-09-09T08:23:39;99920.00;;;21.38;58.32
66668;BME280;57205;51.438;-2.006;2022-09-09T08:26:39;99925.84;;;20.93;57.95
66668;BME280;57205;51.438;-2.006;2022-09-09T08:29:09;99927.84;;;20.53;60.17
66668;BME280;57205;51.438;-2.006;2022-09-09T08:31:56;99929.94;;;20.04;61.07
66668;BME280;57205;51.438;-2.006;2022-09-09T08:34:24;99931.69;;;19.61;62.41
66668;BME280;57205;51.438;-2.006;2022-09-09T08:36:51;99940.63;;;19.37;63.69
66668;BME280;57205;51.438;-2.006;2022-09-09T08:39:21;99945.78;;;19.30;64.24
66668;BME280;57205;51.438;-2.006;2022-09-09T08:52:28;99946.31;;;20.60;59.54
66668;BME280;57205;51.438;-2.006;2022-09-09T08:55:01;99951.19;;;20.54;59.39
66668;BME280;57205;51.438;-2.006;2022-09-09T08:57:30;99957.47;;;20.42;59.68
66668;BME280;57205;51.438;-2.006;2022-09-09T08:59:58;99955.03;;;20.53;60.19
66668;BME280;57205;51.438;-2.006;2022-09-09T09:02:43;99960.81;;;20.52;60.43
66668;BME280;57205;51.438;-2.006;2022-09-09T09:05:59;99958.44;;;20.78;59.94
66668;BME280;57205;51.438;-2.006;2022-09-09T09:11:06;99964.06;;;21.12;57.85
66668;BME280;57205;51.438;-2.006;2022-09-09T09:18:56;99973.53;;;21.03;57.86
66668;BME280;57205;51.438;-2.006;2022-09-09T09:21:36;99978.53;;;21.01;57.75
66668;BME280;57205;51.438;-2.006;2022-09-09T09:24:16;99983.41;;;20.95;57.74
66668;BME280;57205;51.438;-2.006;2022-09-09T09:26:44;99990.94;;;20.86;59.10
66668;BME280;57205;51.438;-2.006;2022-09-09T09:29:12;100000.91;;;20.55;59.12
66668;BME280;57205;51.438;-2.006;2022-09-09T09:31:45;100005.16;;;20.16;59.95
66668;BME280;57205;51.438;-2.006;2022-09-09T09:34:13;100006.44;;;19.70;61.13
66668;BME280;57205;51.438;-2.006;2022-09-09T09:36:45;100007.13;;;19.55;61.93
66668;BME280;57205;51.438;-2.006;2022-09-09T09:39:31;100011.63;;;19.51;61.70
66668;BME280;57205;51.438;-2.006;2022-09-09T09:42:13;100016.41;;;19.54;62.53
66668;BME280;57205;51.438;-2.006;2022-09-09T09:44:41;100015.47;;;19.86;61.59
66668;BME280;57205;51.438;-2.006;2022-09-09T09:47:14;100016.81;;;20.16;60.91
66668;BME280;57205;51.438;-2.006;2022-09-09T09:49:53;100005.66;;;21.13;57.68
66668;BME280;57205;51.438;-2.006;2022-09-09T09:52:37;100025.38;;;21.53;56.31
66668;BME280;57205;51.438;-2.006;2022-09-09T09:55:03;100019.22;;;21.56;55.88
66668;BME280;57205;51.438;-2.006;2022-09-09T09:57:32;100020.69;;;21.54;56.39
66668;BME280;57205;51.438;-2.006;2022-09-09T10:00:17;100027.91;;;21.30;56.45
66668;BME280;57205;51.438;-2.006;2022-09-09T10:02:45;100031.78;;;21.02;58.02
66668;BME280;57205;51.438;-2.006;2022-09-09T10:05:16;100026.00;;;21.03;58.65
66668;BME280;57205;51.438;-2.006;2022-09-09T10:07:43;100028.22;;;20.86;58.41
66668;BME280;57205;51.438;-2.006;2022-09-09T10:10:28;100036.41;;;20.74;58.59
66668;BME280;57205;51.438;-2.006;2022-09-09T10:13:20;100028.22;;;20.58;59.41
66668;BME280;57205;51.438;-2.006;2022-09-09T10:16:15;100035.47;;;20.54;59.98
66668;BME280;57205;51.438;-2.006;2022-09-09T10:19:00;100049.88;;;20.42;60.53
66668;BME280;57205;51.438;-2.006;2022-09-09T10:26:55;100048.41;;;20.45;60.54
66668;BME280;57205;51.438;-2.006;2022-09-09T10:29:43;100056.44;;;20.42;60.36
66668;BME280;57205;51.438;-2.006;2022-09-09T10:35:04;100050.13;;;20.37;61.10
66668;BME280;57205;51.438;-2.006;2022-09-09T10:48:40;100075.38;;;20.26;61.60
66668;BME280;57205;51.438;-2.006;2022-09-09T10:53:52;100071.19;;;20.28;61.63
66668;BME280;57205;51.438;-2.006;2022-09-09T10:56:21;100066.31;;;20.10;62.17
66668;BME280;57205;51.438;-2.006;2022-09-09T10:58:53;100068.13;;;20.06;62.10
66668;BME280;57205;51.438;-2.006;2022-09-09T11:01:47;100073.09;;;20.04;63.03
66668;BME280;57205;51.438;-2.006;2022-09-09T11:04:28;100072.78;;;20.17;62.44
66668;BME280;57205;51.438;-2.006;2022-09-09T11:07:00;100077.72;;;20.03;62.51
66668;BME280;57205;51.438;-2.006;2022-09-09T11:09:41;100072.31;;;20.15;62.06
66668;BME280;57205;51.438;-2.006;2022-09-09T11:12:13;100076.06;;;20.23;62.44
66668;BME280;57205;51.438;-2.006;2022-09-09T11:14:56;100080.91;;;20.05;62.33
66668;BME280;57205;51.438;-2.006;2022-09-09T11:17:44;100084.88;;;20.20;62.65
66668;BME280;57205;51.438;-2.006;2022-09-09T11:20:14;100080.06;;;20.53;61.94
66668;BME280;57205;51.438;-2.006;2022-09-09T11:22:48;100085.16;;;20.67;60.38
66668;BME280;57205;51.438;-2.006;2022-09-09T11:25:23;100079.00;;;20.82;60.62
66668;BME280;57205;51.438;-2.006;2022-09-09T11:31:02;100082.06;;;21.35;59.13
66668;BME280;57205;51.438;-2.006;2022-09-09T11:33:42;100071.41;;;21.58;58.19
66668;BME280;57205;51.438;-2.006;2022-09-09T11:44:39;100085.19;;;21.65;56.85
66668;BME280;57205;51.438;-2.006;2022-09-09T11:49:45;100085.63;;;21.67;56.80
66668;BME280;57205;51.438;-2.006;2022-09-09T11:52:25;100085.72;;;21.71;56.94
66668;BME280;57205;51.438;-2.006;2022-09-09T11:55:09;100088.31;;;21.79;56.93
66668;BME280;57205;51.438;-2.006;2022-09-09T11:57:36;100095.88;;;21.86;57.03
66668;BME280;57205;51.438;-2.006;2022-09-09T12:00:04;100096.50;;;21.79;56.39
66668;BME280;57205;51.438;-2.006;2022-09-09T12:02:30;100101.31;;;21.86;56.40
66668;BME280;57205;51.438;-2.006;2022-09-09T12:05:02;100106.22;;;21.80;56.84
66668;BME280;57205;51.438;-2.006;2022-09-09T12:07:49;100094.44;;;21.61;57.29
66668;BME280;57205;51.438;-2.006;2022-09-09T12:10:33;100089.22;;;21.56;57.06
66668;BME280;57205;51.438;-2.006;2022-09-09T12:13:20;100097.34;;;21.83;56.19
66668;BME280;57205;51.438;-2.006;2022-09-09T12:15:56;100097.97;;;21.92;55.08
66668;BME280;57205;51.438;-2.006;2022-09-09T12:18:36;100095.78;;;21.98;55.19
66668;BME280;57205;51.438;-2.006;2022-09-09T12:21:13;100093.91;;;22.17;55.22
66668;BME280;57205;51.438;-2.006;2022-09-09T12:23:46;100093.09;;;22.33;54.40
66668;BME280;57205;51.438;-2.006;2022-09-09T12:31:35;100100.31;;;22.09;56.24
66668;BME280;57205;51.438;-2.006;2022-09-09T12:34:18;100100.94;;;22.18;55.49
66668;BME280;57205;51.438;-2.006;2022-09-09T12:36:55;100094.19;;;22.12;54.94
66668;BME280;57205;51.438;-2.006;2022-09-09T12:39:47;100092.69;;;21.99;55.69
66668;BME280;57205;51.438;-2.006;2022-09-09T12:42:19;100093.75;;;21.95;56.03
66668;BME280;57205;51.438;-2.006;2022-09-09T12:45:03;100095.44;;;21.99;56.31
66668;BME280;57205;51.438;-2.006;2022-09-09T12:47:38;100107.44;;;21.98;56.39
66668;BME280;57205;51.438;-2.006;2022-09-09T12:50:19;100093.94;;;21.86;56.94
66668;BME280;57205;51.438;-2.006;2022-09-09T12:52:47;100097.59;;;21.78;56.91
66668;BME280;57205;51.438;-2.006;2022-09-09T12:55:31;100086.97;;;21.73;56.09
66668;BME280;57205;51.438;-2.006;2022-09-09T12:58:01;100089.31;;;21.59;56.66
66668;BME280;57205;51.438;-2.006;2022-09-09T13:00:34;100084.22;;;21.58;57.18
66668;BME280;57205;51.438;-2.006;2022-09-09T13:03:17;100084.56;;;21.56;57.73
66668;BME280;57205;51.438;-2.006;2022-09-09T13:05:43;100091.59;;;21.57;57.28
66668;BME280;57205;51.438;-2.006;2022-09-09T13:08:11;100088.53;;;21.59;56.77
66668;BME280;57205;51.438;-2.006;2022-09-09T13:10:41;100083.63;;;21.64;56.21
66668;BME280;57205;51.438;-2.006;2022-09-09T13:13:17;100082.81;;;21.64;56.35
66668;BME280;57205;51.438;-2.006;2022-09-09T13:16:04;100089.56;;;21.54;55.39
66668;BME280;57205;51.438;-2.006;2022-09-09T13:18:34;100083.78;;;21.56;55.72
66668;BME280;57205;51.438;-2.006;2022-09-09T13:21:01;100084.75;;;21.63;55.31
66668;BME280;57205;51.438;-2.006;2022-09-09T13:23:28;100086.06;;;21.69;55.99
66668;BME280;57205;51.438;-2.006;2022-09-09T13:25:56;100090.47;;;21.74;55.50
66668;BME280;57205;51.438;-2.006;2022-09-09T13:28:25;100095.34;;;21.80;56.04
66668;BME280;57205;51.438;-2.006;2022-09-09T13:31:03;100097.53;;;21.90;56.63
66668;BME280;57205;51.438;-2.006;2022-09-09T13:33:39;100088.75;;;21.97;56.03
66668;BME280;57205;51.438;-2.006;2022-09-09T13:36:08;100096.22;;;21.84;56.26
66668;BME280;57205;51.438;-2.006;2022-09-09T13:38:53;100097.25;;;21.80;56.86
66668;BME280;57205;51.438;-2.006;2022-09-09T13:42:02;100095.03;;;21.70;57.24
66668;BME280;57205;51.438;-2.006;2022-09-09T13:44:22;100096.53;;;21.67;57.44
66668;BME280;57205;51.438;-2.006;2022-09-09T13:47:06;100095.72;;;21.51;57.64
66668;BME280;57205;51.438;-2.006;2022-09-09T13:49:42;100097.13;;;21.45;58.42
66668;BME280;57205;51.438;-2.006;2022-09-09T13:52:17;100105.09;;;21.38;58.30
66668;BME280;57205;51.438;-2.006;2022-09-09T13:54:48;100106.66;;;21.39;58.71
66668;BME280;57205;51.438;-2.006;2022-09-09T13:57:22;100108.53;;;21.51;57.97
66668;BME280;57205;51.438;-2.006;2022-09-09T13:59:54;100105.91;;;21.54;58.85
66668;BME280;57205;51.438;-2.006;2022-09-09T14:02:20;100105.63;;;21.59;59.06
66668;BME280;57205;51.438;-2.006;2022-09-09T14:04:48;100098.28;;;21.75;58.41
66668;BME280;57205;51.438;-2.006;2022-09-09T14:07:17;100102.19;;;21.90;57.85
66668;BME280;57205;51.438;-2.006;2022-09-09T14:09:43;100111.94;;;21.91;57.73
66668;BME280;57205;51.438;-2.006;2022-09-09T14:12:13;100111.06;;;22.02;57.97
66668;BME280;57205;51.438;-2.006;2022-09-09T14:14:41;100110.97;;;21.99;57.94
66668;BME280;57205;51.438;-2.006;2022-09-09T14:17:10;100113.63;;;21.95;57.21
66668;BME280;57205;51.438;-2.006;2022-09-09T14:19:35;100111.34;;;21.97;57.27
66668;BME280;57205;51.438;-2.006;2022-09-09T14:22:02;100106.69;;;21.98;57.29
66668;BME280;57205;51.438;-2.006;2022-09-09T14:24:27;100112.28;;;22.05;57.72
66668;BME280;57205;51.438;-2.006;2022-09-09T14:26:53;100110.00;;;22.07;57.52
66668;BME280;57205;51.438;-2.006;2022-09-09T14:29:21;100112.03;;;22.10;58.55
66668;BME280;57205;51.438;-2.006;2022-09-09T14:31:46;100113.69;;;21.99;57.70
66668;BME280;57205;51.438;-2.006;2022-09-09T14:34:13;100122.84;;;21.91;57.65
66668;BME280;57205;51.438;-2.006;2022-09-09T14:36:39;100121.19;;;21.86;57.96
66668;BME280;57205;51.438;-2.006;2022-09-09T14:39:07;100130.06;;;21.99;58.34
66668;BME280;57205;51.438;-2.006;2022-09-09T14:41:33;100125.84;;;22.01;58.01